createdAt,value
2019-02-17T00:01:27.976Z,14.90
2019-02-17T00:04:43.584Z,12.73
2019-02-17T00:07:28.089Z,19.20
2019-02-17T00:10:11.680Z,14.30
2019-02-17T00:12:47.709Z,14.57
2019-02-17T00:15:23.315Z,17.60
2019-02-17T00:17:54.567Z,15.60
2019-02-17T00:20:37.774Z,14.23
2019-02-17T00:23:18.923Z,15.47
2019-02-17T00:26:00.610Z,12.50
2019-02-17T00:28:31.277Z,12.47
2019-02-17T00:31:04.481Z,17.67
2019-02-17T00:33:41.494Z,22.13
2019-02-17T00:36:16.331Z,16.20
2019-02-17T00:39:10.217Z,14.33
2019-02-17T00:43:00.234Z,11.83
2019-02-17T00:45:43.631Z,15.93
2019-02-17T00:48:50.204Z,12.70
2019-02-17T00:51:28.049Z,15.77
2019-02-17T00:54:02.966Z,14.90
2019-02-17T00:56:43.817Z,13.43
2019-02-17T00:59:25.130Z,14.60
2019-02-17T01:02:12.597Z,17.13
2019-02-17T01:04:45.492Z,13.73
2019-02-17T01:07:24.438Z,13.67
2019-02-17T01:10:14.461Z,16.47
2019-02-17T01:15:51.227Z,17.67
2019-02-17T01:18:28.568Z,15.90
2019-02-17T01:21:04.363Z,22.43
2019-02-17T01:23:46.319Z,15.80
2019-02-17T01:26:16.785Z,19.97
2019-02-17T01:28:50.255Z,15.93
2019-02-17T01:31:23.800Z,19.27
2019-02-17T01:34:02.171Z,15.40
2019-02-17T01:36:40.509Z,16.10
2019-02-17T01:39:12.841Z,14.63
2019-02-17T01:41:53.863Z,15.47
2019-02-17T01:44:30.863Z,13.90
2019-02-17T01:47:08.177Z,17.93
2019-02-17T01:49:44.163Z,12.73
2019-02-17T01:52:18.326Z,10.97
2019-02-17T01:54:50.884Z,14.40
2019-02-17T01:57:23.144Z,16.03
2019-02-17T01:59:55.501Z,14.60
2019-02-17T02:02:28.941Z,14.23
2019-02-17T02:05:02.705Z,14.77
2019-02-17T02:07:33.718Z,15.73
2019-02-17T02:10:04.731Z,16.63
2019-02-17T02:12:35.835Z,17.30
2019-02-17T02:15:07.636Z,15.30
2019-02-17T02:17:38.498Z,14.50
2019-02-17T02:20:13.459Z,16.43
2019-02-17T02:22:44.408Z,16.90
2019-02-17T02:25:16.362Z,15.43
2019-02-17T02:27:48.181Z,15.83
2019-02-17T02:30:20.810Z,12.87
2019-02-17T02:32:52.040Z,14.33
2019-02-17T02:35:22.694Z,15.97
2019-02-17T02:37:54.035Z,15.33
2019-02-17T02:40:24.829Z,15.93
2019-02-17T02:42:55.652Z,20.07
2019-02-17T02:45:26.845Z,20.63
2019-02-17T02:48:00.126Z,18.10
2019-02-17T02:50:30.527Z,23.30
2019-02-17T02:53:01.666Z,22.83
2019-02-17T02:55:32.650Z,26.33
2019-02-17T02:58:05.938Z,23.63
2019-02-17T03:00:36.922Z,20.13
2019-02-17T03:03:07.774Z,22.77
2019-02-17T03:05:44.592Z,18.27
2019-02-17T03:08:17.568Z,20.17
2019-02-17T03:10:49.909Z,19.33
2019-02-17T03:13:24.021Z,15.70
2019-02-17T03:15:57.040Z,19.03
2019-02-17T03:18:27.780Z,16.67
2019-02-17T03:20:58.595Z,16.10
2019-02-17T03:23:30.570Z,16.50
2019-02-17T03:26:01.877Z,18.10
2019-02-17T03:28:40.222Z,13.80
2019-02-17T03:31:11.618Z,17.87
2019-02-17T03:33:42.815Z,14.67
2019-02-17T03:36:13.919Z,17.73
2019-02-17T03:38:45.598Z,15.37
2019-02-17T03:41:17.854Z,14.40
2019-02-17T03:43:49.096Z,17.37
2019-02-17T03:46:20.131Z,17.50
2019-02-17T03:48:51.027Z,21.57
2019-02-17T03:51:22.054Z,17.33
2019-02-17T03:53:56.482Z,17.27
2019-02-17T03:56:28.507Z,15.53
2019-02-17T03:59:00.006Z,17.77
2019-02-17T04:01:32.797Z,16.73
2019-02-17T04:04:05.820Z,17.23
2019-02-17T04:06:37.277Z,19.27
2019-02-17T04:09:10.009Z,19.50
2019-02-17T04:11:41.570Z,19.50
2019-02-17T04:14:15.237Z,19.27
2019-02-17T04:16:50.967Z,15.97
2019-02-17T04:19:21.693Z,16.80
2019-02-17T04:22:02.797Z,18.17
2019-02-17T04:24:39.612Z,19.63
2019-02-17T04:27:11.356Z,18.60
2019-02-17T04:29:43.812Z,16.97
2019-02-17T04:32:15.604Z,14.73
2019-02-17T04:34:46.458Z,15.77
2019-02-17T04:37:17.603Z,21.03
2019-02-17T04:39:54.964Z,16.83
2019-02-17T04:42:21.652Z,16.73
2019-02-17T04:44:52.710Z,19.20
2019-02-17T04:47:24.557Z,17.67
2019-02-17T04:49:55.977Z,19.50
2019-02-17T04:52:27.540Z,18.17
2019-02-17T04:54:58.265Z,17.43
2019-02-17T04:57:31.048Z,15.80
2019-02-17T05:00:05.514Z,17.17
2019-02-17T05:02:38.539Z,19.10
2019-02-17T05:05:11.896Z,17.73
2019-02-17T05:07:45.709Z,18.53
2019-02-17T05:10:17.113Z,16.27
2019-02-17T05:12:48.285Z,18.90
2019-02-17T05:15:25.328Z,17.67
2019-02-17T05:18:00.263Z,21.87
2019-02-17T05:20:31.126Z,17.70
2019-02-17T05:23:04.942Z,18.93
2019-02-17T05:25:35.952Z,24.20
2019-02-17T05:28:07.233Z,15.87
2019-02-17T05:30:38.168Z,18.13
2019-02-17T05:33:09.647Z,20.07
2019-02-17T05:35:45.365Z,20.40
2019-02-17T05:38:19.985Z,19.67
2019-02-17T05:40:53.035Z,29.63
2019-02-17T05:43:26.140Z,17.23
2019-02-17T05:45:58.753Z,19.80
2019-02-17T05:48:30.530Z,21.40
2019-02-17T05:51:05.017Z,21.17
2019-02-17T05:53:35.998Z,18.93
2019-02-17T05:56:07.029Z,25.20
2019-02-17T05:58:37.860Z,21.37
2019-02-17T06:01:09.201Z,21.50
2019-02-17T06:03:40.352Z,21.30
2019-02-17T06:06:11.384Z,19.80
2019-02-17T06:08:42.159Z,19.60
2019-02-17T06:11:13.169Z,21.87
2019-02-17T06:13:44.426Z,21.50
2019-02-17T06:16:15.488Z,26.20
2019-02-17T06:18:47.111Z,20.17
2019-02-17T06:21:18.181Z,24.37
2019-02-17T06:23:55.782Z,21.63
2019-02-17T06:26:26.907Z,26.57
2019-02-17T06:29:00.378Z,20.13
2019-02-17T06:31:32.249Z,23.03
2019-02-17T06:34:04.501Z,21.60
2019-02-17T06:36:44.361Z,20.97
2019-02-17T06:39:20.247Z,22.37
2019-02-17T06:41:51.247Z,31.73
2019-02-17T06:44:23.243Z,21.07
2019-02-17T06:47:00.824Z,22.30
2019-02-17T06:49:33.246Z,24.17
2019-02-17T06:52:07.753Z,21.00
2019-02-17T06:54:45.314Z,24.70
2019-02-17T06:57:22.288Z,24.70
2019-02-17T07:00:26.845Z,23.27
2019-02-17T07:03:00.713Z,21.80
2019-02-17T07:05:50.433Z,36.00
2019-02-17T07:08:21.533Z,21.73
2019-02-17T07:10:52.366Z,25.47
2019-02-17T07:13:23.770Z,23.77
2019-02-17T07:15:54.751Z,24.70
2019-02-17T07:18:27.371Z,25.50
2019-02-17T07:20:58.428Z,24.10
2019-02-17T07:23:33.250Z,23.17
2019-02-17T07:26:04.586Z,23.40
2019-02-17T07:28:39.113Z,21.03
2019-02-17T07:31:10.361Z,29.83
2019-02-17T07:33:46.270Z,24.13
2019-02-17T07:36:21.981Z,28.53
2019-02-17T07:38:51.500Z,25.87
2019-02-17T07:41:25.310Z,28.43
2019-02-17T07:43:56.588Z,29.30
2019-02-17T07:46:27.607Z,23.90
2019-02-17T07:49:05.778Z,26.97
2019-02-17T07:51:40.748Z,25.80
2019-02-17T07:54:14.916Z,24.97
2019-02-17T07:56:45.862Z,27.33
2019-02-17T07:59:18.848Z,26.33
2019-02-17T08:01:52.111Z,25.57
2019-02-17T08:04:44.203Z,27.47
2019-02-17T08:07:15.269Z,27.07
2019-02-17T08:09:50.307Z,29.00
2019-02-17T08:12:24.834Z,25.27
2019-02-17T08:15:08.725Z,27.50
2019-02-17T08:17:40.216Z,27.53
2019-02-17T08:20:11.601Z,30.00
2019-02-17T08:22:43.984Z,29.27
2019-02-17T08:25:21.709Z,27.63
2019-02-17T08:27:55.375Z,27.07
2019-02-17T08:30:56.341Z,28.63
2019-02-17T08:33:31.386Z,31.10
2019-02-17T08:36:10.233Z,29.57
2019-02-17T08:38:51.819Z,27.17
2019-02-17T08:41:26.845Z,27.70
2019-02-17T08:44:06.788Z,27.97
2019-02-17T08:46:38.270Z,26.03
2019-02-17T08:49:10.483Z,28.10
2019-02-17T08:51:50.717Z,29.07
2019-02-17T08:54:23.611Z,31.07
2019-02-17T08:56:56.265Z,28.00
2019-02-17T08:59:30.036Z,29.43
2019-02-17T09:02:05.987Z,25.27
2019-02-17T09:07:46.339Z,28.40
2019-02-17T09:10:20.017Z,30.27
2019-02-17T09:13:01.999Z,30.37
2019-02-17T09:15:42.224Z,25.07
2019-02-17T09:18:19.426Z,25.53
2019-02-17T09:20:50.447Z,29.60
2019-02-17T09:23:22.532Z,43.60
2019-02-17T09:26:24.286Z,29.23
2019-02-17T09:28:26.722Z,29.83
2019-02-17T09:30:59.141Z,28.23
2019-02-17T09:33:33.411Z,30.50
2019-02-17T09:36:07.993Z,27.33
2019-02-17T09:38:44.124Z,32.20
2019-02-17T09:41:20.855Z,27.23
2019-02-17T09:43:53.243Z,27.20
2019-02-17T09:46:34.320Z,29.70
2019-02-17T09:49:06.880Z,30.90
2019-02-17T09:51:37.884Z,34.33
2019-02-17T09:54:12.664Z,29.80
2019-02-17T09:56:44.216Z,30.10
2019-02-17T09:59:34.274Z,29.80
2019-02-17T10:02:26.257Z,26.80
2019-02-17T10:04:52.687Z,30.70
2019-02-17T10:07:42.487Z,27.00
2019-02-17T10:10:20.096Z,28.43
2019-02-17T10:12:56.481Z,32.13
2019-02-17T10:15:32.685Z,28.97
2019-02-17T10:18:09.550Z,30.67
2019-02-17T10:20:49.933Z,26.93
2019-02-17T10:23:37.719Z,28.77
2019-02-17T10:26:10.895Z,29.93
2019-02-17T10:29:07.904Z,30.53
2019-02-17T10:31:39.725Z,30.60
2019-02-17T10:34:28.469Z,28.33
2019-02-17T10:37:01.153Z,30.83
2019-02-17T10:40:05.718Z,29.07
2019-02-17T10:42:48.865Z,27.00
2019-02-17T10:45:27.810Z,32.37
2019-02-17T10:48:03.121Z,28.00
2019-02-17T10:50:37.013Z,33.20
2019-02-17T10:53:13.572Z,34.87
2019-02-17T10:55:44.872Z,29.97
2019-02-17T10:58:27.977Z,32.97
2019-02-17T11:00:59.090Z,30.73
2019-02-17T11:03:40.078Z,29.83
2019-02-17T11:06:15.938Z,27.90
2019-02-17T11:08:55.385Z,31.03
2019-02-17T11:11:41.470Z,33.80
2019-02-17T11:14:22.483Z,31.53
2019-02-17T11:17:18.305Z,30.90
2019-02-17T11:19:54.760Z,33.53
2019-02-17T11:22:41.854Z,33.57
2019-02-17T11:25:15.613Z,32.33
2019-02-17T11:27:59.334Z,33.10
2019-02-17T11:30:31.084Z,31.27
2019-02-17T11:33:13.759Z,32.27
2019-02-17T11:36:12.195Z,32.97
2019-02-17T11:39:01.138Z,31.73
2019-02-17T11:41:47.337Z,30.53
2019-02-17T11:44:21.794Z,30.77
2019-02-17T11:47:02.078Z,27.47
2019-02-17T11:49:29.866Z,31.77
2019-02-17T11:52:12.343Z,35.50
2019-02-17T11:54:54.318Z,28.23
2019-02-17T11:57:35.134Z,34.53
2019-02-17T12:00:16.392Z,33.33
2019-02-17T12:02:53.390Z,31.37
2019-02-17T12:05:24.424Z,27.67
2019-02-17T12:07:59.127Z,33.77
2019-02-17T12:10:53.391Z,33.70
2019-02-17T12:13:24.616Z,30.03
2019-02-17T12:16:05.488Z,32.37
2019-02-17T12:18:45.396Z,27.87
2019-02-17T12:22:13.942Z,30.63
2019-02-17T12:25:00.244Z,33.63
2019-02-17T12:28:06.244Z,33.67
2019-02-17T12:30:40.047Z,31.50
2019-02-17T12:33:20.587Z,31.17
2019-02-17T12:36:30.886Z,32.73
2019-02-17T12:38:52.940Z,32.77
2019-02-17T12:41:44.090Z,32.23
2019-02-17T12:44:30.372Z,31.73
2019-02-17T12:47:18.125Z,30.60
2019-02-17T12:49:52.560Z,35.50
2019-02-17T12:52:32.992Z,31.43
2019-02-17T12:55:42.878Z,37.10
2019-02-17T12:58:15.623Z,30.03
2019-02-17T13:00:48.023Z,29.70
2019-02-17T13:03:28.327Z,31.80
2019-02-17T13:05:56.249Z,27.67
2019-02-17T13:08:27.564Z,29.43
2019-02-17T13:11:05.718Z,29.20
2019-02-17T13:13:40.740Z,33.87
2019-02-17T13:16:17.083Z,35.47
2019-02-17T13:18:50.944Z,30.43
2019-02-17T13:21:22.453Z,31.30
2019-02-17T13:24:10.789Z,30.63
2019-02-17T13:26:53.620Z,33.17
2019-02-17T13:29:40.162Z,59.63
2019-02-17T13:32:13.583Z,30.17
2019-02-17T13:34:52.687Z,28.53
2019-02-17T13:37:31.446Z,24.20
2019-02-17T13:40:07.318Z,25.97
2019-02-17T13:42:49.614Z,28.03
2019-02-17T13:45:30.423Z,37.00
2019-02-17T13:49:03.987Z,36.57
2019-02-17T13:52:08.190Z,28.50
2019-02-17T13:54:00.702Z,27.90
2019-02-17T13:56:39.730Z,27.03
2019-02-17T13:59:19.753Z,33.33
2019-02-17T14:01:57.423Z,28.40
2019-02-17T14:04:32.233Z,31.00
2019-02-17T14:07:28.570Z,28.57
2019-02-17T14:10:29.621Z,28.87
2019-02-17T14:13:08.058Z,31.07
2019-02-17T14:15:42.384Z,30.40
2019-02-17T14:18:36.950Z,29.83
2019-02-17T14:21:14.227Z,32.73
2019-02-17T14:23:45.341Z,29.97
2019-02-17T14:26:36.862Z,34.10
2019-02-17T14:29:10.751Z,29.87
2019-02-17T14:31:42.845Z,32.67
2019-02-17T14:34:17.360Z,29.27
2019-02-17T14:36:58.569Z,29.53
2019-02-17T14:39:30.224Z,32.50
2019-02-17T14:42:07.699Z,30.57
2019-02-17T14:44:51.752Z,30.53
2019-02-17T14:47:30.074Z,30.73
2019-02-17T14:50:06.412Z,26.80
2019-02-17T14:52:43.608Z,29.40
2019-02-17T14:55:14.656Z,28.83
2019-02-17T14:58:34.516Z,29.33
2019-02-17T15:00:45.853Z,30.87
2019-02-17T15:03:25.981Z,32.43
2019-02-17T15:06:19.599Z,28.37
2019-02-17T15:11:42.573Z,30.33
2019-02-17T15:14:19.916Z,27.07
2019-02-17T15:16:57.312Z,31.70
2019-02-17T15:19:33.364Z,29.43
2019-02-17T15:22:12.287Z,32.40
2019-02-17T15:24:45.374Z,32.17
2019-02-17T15:27:18.339Z,29.30
2019-02-17T15:29:52.148Z,30.53
2019-02-17T15:33:25.282Z,29.77
2019-02-17T15:35:22.266Z,28.97
2019-02-17T15:38:11.099Z,27.57
2019-02-17T15:40:44.721Z,29.83
2019-02-17T15:44:16.007Z,28.67
2019-02-17T15:46:29.868Z,27.60
2019-02-17T15:49:34.845Z,30.63
2019-02-17T15:53:02.980Z,29.70
2019-02-17T15:55:19.243Z,28.93
2019-02-17T15:58:00.008Z,33.00
2019-02-17T16:00:33.961Z,30.77
2019-02-17T16:03:16.757Z,35.83
2019-02-17T16:06:09.454Z,33.10
2019-02-17T16:08:52.634Z,35.50
2019-02-17T16:11:24.677Z,39.60
2019-02-17T16:14:01.661Z,36.33
2019-02-17T16:16:32.841Z,31.80
2019-02-17T16:19:07.960Z,32.73
2019-02-17T16:21:41.917Z,33.87
2019-02-17T16:24:25.375Z,36.00
2019-02-17T16:27:17.119Z,34.33
2019-02-17T16:29:59.279Z,35.67
2019-02-17T16:32:35.706Z,39.10
2019-02-17T16:35:16.364Z,37.67
2019-02-17T16:37:52.530Z,37.47
2019-02-17T16:40:37.382Z,39.80
2019-02-17T16:43:24.179Z,38.07
2019-02-17T16:46:28.525Z,39.67
2019-02-17T16:49:05.930Z,40.00
2019-02-17T16:51:41.002Z,41.80
2019-02-17T16:54:14.202Z,40.07
2019-02-17T16:56:59.358Z,42.37
2019-02-17T16:59:48.350Z,45.77
2019-02-17T17:02:30.802Z,41.70
2019-02-17T17:05:37.474Z,41.80
2019-02-17T17:08:14.907Z,39.90
2019-02-17T17:10:54.900Z,43.50
2019-02-17T17:16:39.112Z,47.50
2019-02-17T17:22:21.516Z,43.83
2019-02-17T17:26:16.619Z,52.00
2019-02-17T17:28:18.642Z,46.83
2019-02-17T17:35:08.315Z,49.57
2019-02-17T17:37:56.901Z,47.13
2019-02-17T17:40:38.771Z,48.43
2019-02-17T17:43:26.349Z,44.37
2019-02-17T17:46:19.040Z,45.33
2019-02-17T17:49:08.607Z,43.87
2019-02-17T17:52:10.738Z,40.97
2019-02-17T17:54:57.076Z,45.57
2019-02-17T17:57:40.250Z,43.10
2019-02-17T18:00:31.094Z,41.63
2019-02-17T18:03:00.353Z,39.50
2019-02-17T18:05:33.971Z,44.93
2019-02-17T18:08:52.416Z,39.13
2019-02-17T18:11:33.113Z,43.73
2019-02-17T18:14:12.981Z,41.10
2019-02-17T18:17:17.936Z,42.63
2019-02-17T18:20:25.495Z,43.13
2019-02-17T18:23:02.078Z,44.90
2019-02-17T18:25:41.319Z,44.77
2019-02-17T18:28:31.390Z,39.03
2019-02-17T18:31:10.016Z,41.87
2019-02-17T18:33:58.897Z,38.77
2019-02-17T18:37:05.958Z,37.80
2019-02-17T18:39:43.625Z,81.87
2019-02-17T18:42:23.535Z,38.67
2019-02-17T18:45:09.426Z,28.50
2019-02-17T18:48:24.016Z,25.10
2019-02-17T18:51:28.675Z,22.27
2019-02-17T18:54:07.664Z,23.13
2019-02-17T18:56:40.290Z,36.07
2019-02-17T18:59:28.904Z,27.47
2019-02-17T19:02:07.565Z,29.83
2019-02-17T19:05:48.905Z,28.30
2019-02-17T19:08:11.384Z,19.43
2019-02-17T19:11:06.011Z,13.77
2019-02-17T19:17:08.098Z,30.73
2019-02-17T19:20:03.557Z,46.57
2019-02-17T19:22:42.737Z,25.63
2019-02-17T19:25:41.510Z,16.70
2019-02-17T19:28:17.211Z,19.03
2019-02-17T19:30:49.752Z,15.43
2019-02-17T19:34:01.867Z,15.03
2019-02-17T19:36:44.185Z,34.87
2019-02-17T19:39:23.775Z,30.23
2019-02-17T19:41:59.037Z,73.60
2019-02-17T19:44:36.831Z,27.93
2019-02-17T19:47:14.199Z,20.13
2019-02-17T19:49:54.485Z,22.47
2019-02-17T19:52:49.607Z,20.47
2019-02-17T19:55:26.271Z,24.37
2019-02-17T19:57:57.367Z,30.43
2019-02-17T20:00:44.562Z,17.07
2019-02-17T20:03:28.188Z,16.63
2019-02-17T20:06:01.346Z,16.30
2019-02-17T20:08:38.676Z,16.87
2019-02-17T20:11:13.027Z,20.53
2019-02-17T20:13:52.905Z,19.73
2019-02-17T20:16:23.148Z,18.13
2019-02-17T20:18:53.924Z,16.10
2019-02-17T20:21:42.687Z,108.07
2019-02-17T20:24:18.489Z,75.73
2019-02-17T20:27:02.036Z,38.70
2019-02-17T20:29:36.854Z,17.33
2019-02-17T20:32:08.408Z,13.50
2019-02-17T20:34:42.277Z,21.43
2019-02-17T20:37:17.689Z,24.03
2019-02-17T20:40:30.514Z,21.23
2019-02-17T20:43:08.091Z,15.73
2019-02-17T20:45:49.811Z,17.10
2019-02-17T20:48:27.836Z,16.67
2019-02-17T20:51:31.851Z,19.00
2019-02-17T20:54:13.662Z,27.83
2019-02-17T20:56:58.185Z,20.37
2019-02-17T20:59:31.338Z,16.33
2019-02-17T21:02:14.301Z,17.63
2019-02-17T21:04:54.479Z,16.47
2019-02-17T21:07:31.089Z,18.60
2019-02-17T21:10:05.924Z,18.30
2019-02-17T21:12:50.388Z,18.17
2019-02-17T21:15:45.490Z,18.60
2019-02-17T21:18:18.135Z,19.83
2019-02-17T21:20:55.449Z,15.90
2019-02-17T21:24:10.480Z,20.90
2019-02-17T21:26:44.561Z,19.10
2019-02-17T21:29:18.981Z,20.50
2019-02-17T21:31:54.990Z,21.93
2019-02-17T21:34:48.452Z,30.53
2019-02-17T21:37:31.564Z,19.17
2019-02-17T21:40:08.241Z,23.27
2019-02-17T21:42:42.501Z,22.53
2019-02-17T21:45:32.655Z,22.63
2019-02-17T21:48:17.597Z,20.77
2019-02-17T21:50:58.468Z,20.50
2019-02-17T21:53:31.382Z,21.33
2019-02-17T21:56:10.923Z,19.43
2019-02-17T21:58:42.249Z,19.30
2019-02-17T22:01:23.989Z,23.50
2019-02-17T22:04:05.124Z,19.37
2019-02-17T22:06:43.497Z,25.80
2019-02-17T22:09:40.594Z,22.17
2019-02-17T22:13:05.575Z,22.60
2019-02-17T22:15:13.166Z,22.37
2019-02-17T22:18:18.048Z,18.87
2019-02-17T22:20:52.938Z,21.80
2019-02-17T22:23:27.889Z,24.13
2019-02-17T22:26:00.051Z,21.63
2019-02-17T22:28:49.504Z,19.57
2019-02-17T22:31:32.044Z,18.00
2019-02-17T22:34:10.589Z,29.50
2019-02-17T22:36:49.366Z,19.73
2019-02-17T22:39:31.181Z,18.93
2019-02-17T22:42:04.164Z,20.33
2019-02-17T22:44:35.288Z,21.53
2019-02-17T22:47:14.490Z,20.77
2019-02-17T22:49:52.454Z,23.10
2019-02-17T22:52:33.675Z,20.90
2019-02-17T22:55:10.221Z,20.90
2019-02-17T22:58:08.539Z,17.60
2019-02-17T23:01:12.744Z,20.63
2019-02-17T23:04:09.023Z,23.67
2019-02-17T23:07:08.902Z,17.90
2019-02-17T23:10:09.220Z,20.07
2019-02-17T23:12:49.731Z,18.60
2019-02-17T23:15:25.380Z,20.87
2019-02-17T23:18:04.985Z,18.80
2019-02-17T23:20:40.106Z,19.80
2019-02-17T23:23:16.276Z,23.63
2019-02-17T23:25:48.036Z,20.37
2019-02-17T23:28:30.564Z,19.47
2019-02-17T23:30:56.524Z,19.40
2019-02-17T23:33:35.390Z,17.77
2019-02-17T23:36:13.101Z,18.27
2019-02-17T23:38:47.839Z,21.53
2019-02-17T23:41:23.422Z,19.73
2019-02-17T23:43:54.846Z,21.20
2019-02-17T23:46:36.351Z,20.20
2019-02-17T23:49:32.455Z,19.27
2019-02-17T23:51:50.899Z,19.97
2019-02-17T23:54:26.671Z,17.83
2019-02-17T23:57:22.515Z,20.33
2019-02-17T23:59:44.812Z,19.57
